createdAt,value
2019-04-22T00:01:06.986Z,37.40
2019-04-22T00:06:39.055Z,37.40
2019-04-22T00:11:54.617Z,37.30
2019-04-22T00:16:58.606Z,37.30
2019-04-22T00:22:08.028Z,37.30
2019-04-22T00:27:23.476Z,37.40
2019-04-22T00:32:31.807Z,37.40
2019-04-22T00:37:56.739Z,37.40
2019-04-22T00:42:47.242Z,37.50
2019-04-22T00:47:50.664Z,37.50
2019-04-22T00:53:03.894Z,38.10
2019-04-22T00:58:12.179Z,37.40
2019-04-22T01:03:21.578Z,37.40
2019-04-22T01:08:35.235Z,37.40
2019-04-22T01:13:30.445Z,37.50
2019-04-22T01:18:42.434Z,37.40
2019-04-22T01:23:49.144Z,37.50
2019-04-22T01:28:52.868Z,37.40
2019-04-22T01:33:53.964Z,37.40
2019-04-22T01:39:18.672Z,37.40
2019-04-22T01:44:33.370Z,37.40
2019-04-22T01:49:34.360Z,37.40
2019-04-22T01:54:52.716Z,37.50
2019-04-22T01:59:41.351Z,37.40
2019-04-22T02:05:01.244Z,37.40
2019-04-22T02:10:02.340Z,37.50
2019-04-22T02:15:13.796Z,37.50
2019-04-22T02:20:25.367Z,37.40
2019-04-22T02:25:34.505Z,37.40
2019-04-22T02:30:54.360Z,38.10
2019-04-22T02:36:11.767Z,37.40
2019-04-22T02:41:21.014Z,37.50
2019-04-22T02:46:23.312Z,37.40
2019-04-22T03:06:43.052Z,37.40
2019-04-22T03:11:56.582Z,37.40
2019-04-22T03:22:08.295Z,37.40
2019-04-22T03:32:59.378Z,37.40
2019-04-22T03:37:32.128Z,37.40
2019-04-22T03:42:45.701Z,37.40
2019-04-22T03:47:54.220Z,37.50
2019-04-22T04:03:09.603Z,37.50
2019-04-22T04:08:19.680Z,37.50
2019-04-22T04:13:30.447Z,37.40
2019-04-22T04:18:44.546Z,37.40
2019-04-22T04:29:05.842Z,37.40
2019-04-22T04:33:54.052Z,37.50
2019-04-22T04:44:23.064Z,37.50
2019-04-22T04:49:24.236Z,37.40
2019-04-22T04:54:35.560Z,37.50
2019-04-22T04:59:53.248Z,37.50
2019-04-22T05:04:59.310Z,37.40
2019-04-22T05:09:59.856Z,37.50
2019-04-22T05:15:04.144Z,37.50
2019-04-22T05:20:14.897Z,37.40
2019-04-22T05:40:28.267Z,37.70
2019-04-22T05:45:49.433Z,37.60
2019-04-22T05:50:59.840Z,37.60
2019-04-22T05:56:09.326Z,37.70
2019-04-22T06:06:34.034Z,37.80
2019-04-22T06:11:50.939Z,37.90
2019-04-22T06:17:01.816Z,38.00
2019-04-22T06:22:09.091Z,37.90
2019-04-22T06:27:14.745Z,38.00
2019-04-22T06:37:23.510Z,38.20
2019-04-22T06:42:42.926Z,38.20
2019-04-22T06:48:02.658Z,38.20
2019-04-22T06:52:58.616Z,38.20
2019-04-22T06:58:04.578Z,38.30
2019-04-22T07:08:39.444Z,38.40
2019-04-22T07:13:32.761Z,38.50
2019-04-22T07:18:49.881Z,38.50
2019-04-22T07:24:14.595Z,38.60
2019-04-22T07:29:23.246Z,38.70
2019-04-22T07:34:21.667Z,38.70
2019-04-22T07:39:39.301Z,38.70
2019-04-22T07:44:52.887Z,38.70
2019-04-22T07:50:09.697Z,38.80
2019-04-22T07:55:07.130Z,38.90
2019-04-22T08:00:24.135Z,38.80
2019-04-22T08:05:47.599Z,39.10
2019-04-22T08:10:48.608Z,39.10
2019-04-22T08:15:58.767Z,39.20
2019-04-22T08:21:04.802Z,39.30
2019-04-22T08:26:05.519Z,39.30
2019-04-22T08:31:20.313Z,39.40
2019-04-22T08:36:30.518Z,39.60
2019-04-22T08:41:41.561Z,39.70
2019-04-22T08:46:40.098Z,39.70
2019-04-22T08:51:49.102Z,39.80
2019-04-22T08:56:57.154Z,39.90
2019-04-22T09:02:09.351Z,39.90
2019-04-22T09:07:21.161Z,40.00
2019-04-22T09:12:32.792Z,40.00
2019-04-22T09:17:40.228Z,40.10
2019-04-22T09:22:36.341Z,40.10
2019-04-22T09:27:47.992Z,40.30
2019-04-22T09:32:59.215Z,40.30
2019-04-22T09:38:12.058Z,40.40
2019-04-22T09:43:09.947Z,40.40
2019-04-22T09:48:18.113Z,40.40
2019-04-22T09:53:32.298Z,40.50
2019-04-22T09:58:39.543Z,40.30
2019-04-22T10:03:49.742Z,40.50
2019-04-22T10:09:12.963Z,40.50
2019-04-22T10:14:05.783Z,40.60
2019-04-22T10:19:11.915Z,40.60
2019-04-22T10:24:19.158Z,40.60
2019-04-22T10:29:38.637Z,40.60
2019-04-22T10:34:22.991Z,40.60
2019-04-22T10:39:20.338Z,40.70
2019-04-22T10:44:28.904Z,40.70
2019-04-22T10:49:46.648Z,40.60
2019-04-22T10:54:53.609Z,40.60
2019-04-22T11:00:02.976Z,40.60
2019-04-22T11:05:16.669Z,41.30
2019-04-22T11:10:39.233Z,40.60
2019-04-22T11:15:30.726Z,40.50
2019-04-22T11:20:37.796Z,40.60
2019-04-22T11:25:50.121Z,40.50
2019-04-22T11:30:56.393Z,40.40
2019-04-22T11:36:02.166Z,40.40
2019-04-22T11:47:11.892Z,40.20
2019-04-22T11:52:20.159Z,40.20
2019-04-22T11:57:26.182Z,40.00
2019-04-22T12:02:33.194Z,40.00
2019-04-22T12:07:40.934Z,39.90
2019-04-22T12:12:48.311Z,40.00
2019-04-22T12:17:57.531Z,40.00
2019-04-22T12:23:11.369Z,39.80
2019-04-22T12:28:21.204Z,39.70
2019-04-22T12:33:27.723Z,39.60
2019-04-22T12:38:33.576Z,39.60
2019-04-22T12:43:40.933Z,39.50
2019-04-22T12:48:46.979Z,39.60
2019-04-22T12:53:52.936Z,39.30
2019-04-22T12:58:59.545Z,39.30
2019-04-22T13:04:09.538Z,39.20
2019-04-22T13:09:14.553Z,39.10
2019-04-22T13:14:22.978Z,39.00
2019-04-22T13:19:36.131Z,39.00
2019-04-22T13:24:43.867Z,38.90
2019-04-22T13:29:50.971Z,38.80
2019-04-22T13:35:01.601Z,38.90
2019-04-22T13:40:07.381Z,38.80
2019-04-22T13:45:15.813Z,38.60
2019-04-22T13:56:28.415Z,38.60
2019-04-22T14:01:00.839Z,38.50
2019-04-22T14:07:00.883Z,38.50
2019-04-22T14:12:09.027Z,38.50
2019-04-22T14:17:16.656Z,38.40
2019-04-22T14:22:46.312Z,38.30
2019-04-22T14:28:01.239Z,38.30
2019-04-22T14:33:00.386Z,38.30
2019-04-22T14:38:06.468Z,38.00
2019-04-22T14:43:37.457Z,37.90
2019-04-22T14:48:46.036Z,38.00
2019-04-22T14:53:44.857Z,37.70
2019-04-22T14:58:37.256Z,37.70
2019-04-22T15:03:48.170Z,37.60
2019-04-22T15:08:57.158Z,37.40
2019-04-22T15:14:03.690Z,37.40
2019-04-22T15:19:31.771Z,37.40
2019-04-22T15:24:40.603Z,37.20
2019-04-22T15:29:47.461Z,37.30
2019-04-22T15:34:59.615Z,37.00
2019-04-22T15:40:10.955Z,37.10
2019-04-22T15:45:18.780Z,37.00
2019-04-22T15:50:40.535Z,37.00
2019-04-22T15:55:47.127Z,36.90
2019-04-22T16:01:02.590Z,36.90
2019-04-22T16:06:02.133Z,36.90
2019-04-22T16:11:09.581Z,36.90
2019-04-22T16:16:16.517Z,36.70
2019-04-22T16:21:37.208Z,36.70
2019-04-22T16:26:50.574Z,36.70
2019-04-22T16:31:57.639Z,36.90
2019-04-22T16:37:05.012Z,36.90
2019-04-22T16:47:51.896Z,36.90
2019-04-22T16:52:59.721Z,37.00
2019-04-22T16:58:16.770Z,37.10
2019-04-22T17:03:56.642Z,37.10
2019-04-22T17:09:06.707Z,37.80
2019-04-22T17:14:19.023Z,37.20
2019-04-22T17:19:23.627Z,37.10
2019-04-22T17:24:32.823Z,37.00
2019-04-22T17:29:41.019Z,37.10
2019-04-22T17:34:49.591Z,37.00
2019-04-22T17:40:10.079Z,37.00
2019-04-22T17:45:33.828Z,37.00
2019-04-22T17:51:14.487Z,37.10
2019-04-22T17:55:55.719Z,36.90
2019-04-22T18:01:02.950Z,37.10
2019-04-22T18:06:01.396Z,37.00
2019-04-22T18:11:41.529Z,37.00
2019-04-22T18:16:45.742Z,36.90
2019-04-22T18:21:47.661Z,36.80
2019-04-22T18:27:20.220Z,36.80
2019-04-22T18:32:16.885Z,36.70
2019-04-22T18:37:26.227Z,36.70
2019-04-22T18:42:31.345Z,36.60
2019-04-22T18:47:44.307Z,36.40
2019-04-22T18:53:23.372Z,36.50
2019-04-22T18:58:21.319Z,36.40
2019-04-22T19:03:20.271Z,36.30
2019-04-22T19:08:45.588Z,36.20
2019-04-22T19:19:21.238Z,36.00
2019-04-22T19:24:07.359Z,35.90
2019-04-22T19:29:20.641Z,35.80
2019-04-22T19:34:20.903Z,35.80
2019-04-22T19:39:27.279Z,35.80
2019-04-22T19:44:39.411Z,35.60
2019-04-22T19:49:56.180Z,35.50
2019-04-22T19:54:58.370Z,35.50
2019-04-22T20:00:14.697Z,35.40
2019-04-22T20:05:53.004Z,35.40
2019-04-22T20:11:04.071Z,35.40
2019-04-22T20:15:56.108Z,35.30
2019-04-22T20:21:17.881Z,35.20
2019-04-22T20:26:16.141Z,35.10
2019-04-22T20:31:53.093Z,35.00
2019-04-22T20:42:23.566Z,35.00
2019-04-22T20:47:13.932Z,35.10
2019-04-22T20:52:34.500Z,35.00
2019-04-22T20:57:38.292Z,34.90
2019-04-22T21:02:32.696Z,35.00
2019-04-22T21:07:48.368Z,35.00
2019-04-22T21:12:55.905Z,35.00
2019-04-22T21:18:02.614Z,34.90
2019-04-22T21:23:14.994Z,34.80
2019-04-22T21:28:21.868Z,34.90
2019-04-22T21:33:20.996Z,34.90
2019-04-22T21:38:40.368Z,34.90
2019-04-22T21:43:50.069Z,34.80
2019-04-22T21:48:52.800Z,34.80
2019-04-22T21:54:06.901Z,34.80
2019-04-22T21:59:22.326Z,34.90
2019-04-22T22:04:25.233Z,34.90
2019-04-22T22:09:39.149Z,34.80
2019-04-22T22:14:40.052Z,34.90
2019-04-22T22:19:48.546Z,34.90
2019-04-22T22:24:57.287Z,34.90
2019-04-22T22:30:20.487Z,34.90
2019-04-22T22:35:15.871Z,35.60
2019-04-22T22:40:17.487Z,35.00
2019-04-22T22:45:28.954Z,35.00
2019-04-22T22:50:44.327Z,35.00
2019-04-22T22:55:53.297Z,34.90
2019-04-22T23:01:06.375Z,35.00
2019-04-22T23:06:22.759Z,34.90
2019-04-22T23:11:45.470Z,34.90
2019-04-22T23:16:22.095Z,34.90
2019-04-22T23:21:29.132Z,35.00
2019-04-22T23:26:54.099Z,35.00
2019-04-22T23:31:52.173Z,35.00
2019-04-22T23:37:35.365Z,34.90
2019-04-22T23:42:53.087Z,34.90
2019-04-22T23:47:48.597Z,34.80
2019-04-22T23:53:06.514Z,34.80
2019-04-22T23:58:30.240Z,34.80
